sensor_id;sensor_type;location;lat;lon;timestamp;P1;durP1;ratioP1;P2;durP2;ratioP2
41887;SDS011;63122;52.424;13.458;2023-03-01T00:01:36;40.90;;;16.93;;
41887;SDS011;63122;52.424;13.458;2023-03-01T00:03:33;36.90;;;17.10;;
41887;SDS011;63122;52.424;13.458;2023-03-01T00:05:30;35.30;;;16.87;;
41887;SDS011;63122;52.424;13.458;2023-03-01T00:07:27;33.73;;;16.87;;
41887;SDS011;63122;52.424;13.458;2023-03-01T00:09:22;37.13;;;17.80;;
41887;SDS011;63122;52.424;13.458;2023-03-01T00:11:18;41.73;;;18.53;;
41887;SDS011;63122;52.424;13.458;2023-03-01T00:13:14;43.87;;;18.33;;
41887;SDS011;63122;52.424;13.458;2023-03-01T00:15:10;39.37;;;18.90;;
41887;SDS011;63122;52.424;13.458;2023-03-01T00:17:05;43.30;;;20.00;;
41887;SDS011;63122;52.424;13.458;2023-03-01T00:19:03;38.13;;;19.40;;
41887;SDS011;63122;52.424;13.458;2023-03-01T00:20:59;42.27;;;19.67;;
41887;SDS011;63122;52.424;13.458;2023-03-01T00:22:54;39.43;;;18.13;;
41887;SDS011;63122;52.424;13.458;2023-03-01T00:24:49;39.90;;;18.27;;
41887;SDS011;63122;52.424;13.458;2023-03-01T00:26:44;42.70;;;19.17;;
41887;SDS011;63122;52.424;13.458;2023-03-01T00:28:40;37.50;;;18.37;;
41887;SDS011;63122;52.424;13.458;2023-03-01T00:30:35;38.33;;;18.00;;
41887;SDS011;63122;52.424;13.458;2023-03-01T00:32:30;31.07;;;17.17;;
41887;SDS011;63122;52.424;13.458;2023-03-01T00:34:28;41.23;;;19.13;;
41887;SDS011;63122;52.424;13.458;2023-03-01T00:36:23;45.20;;;19.27;;
41887;SDS011;63122;52.424;13.458;2023-03-01T00:38:21;44.30;;;19.60;;
41887;SDS011;63122;52.424;13.458;2023-03-01T00:40:16;42.43;;;19.53;;
41887;SDS011;63122;52.424;13.458;2023-03-01T00:42:12;34.67;;;18.13;;
41887;SDS011;63122;52.424;13.458;2023-03-01T00:44:07;40.57;;;17.43;;
41887;SDS011;63122;52.424;13.458;2023-03-01T00:46:04;40.90;;;18.10;;
41887;SDS011;63122;52.424;13.458;2023-03-01T00:48:00;41.63;;;17.77;;
41887;SDS011;63122;52.424;13.458;2023-03-01T00:49:58;38.37;;;18.10;;
41887;SDS011;63122;52.424;13.458;2023-03-01T00:51:54;40.03;;;17.97;;
41887;SDS011;63122;52.424;13.458;2023-03-01T00:53:50;34.10;;;18.10;;
41887;SDS011;63122;52.424;13.458;2023-03-01T00:55:46;38.47;;;18.13;;
41887;SDS011;63122;52.424;13.458;2023-03-01T00:57:41;38.07;;;18.70;;
41887;SDS011;63122;52.424;13.458;2023-03-01T00:59:36;32.97;;;16.93;;
41887;SDS011;63122;52.424;13.458;2023-03-01T01:01:32;38.10;;;18.47;;
41887;SDS011;63122;52.424;13.458;2023-03-01T01:03:27;39.63;;;18.00;;
41887;SDS011;63122;52.424;13.458;2023-03-01T01:05:27;34.77;;;17.70;;
41887;SDS011;63122;52.424;13.458;2023-03-01T01:07:22;34.30;;;17.77;;
41887;SDS011;63122;52.424;13.458;2023-03-01T01:09:19;36.47;;;17.07;;
41887;SDS011;63122;52.424;13.458;2023-03-01T01:11:15;30.53;;;14.93;;
41887;SDS011;63122;52.424;13.458;2023-03-01T01:13:11;28.37;;;15.60;;
41887;SDS011;63122;52.424;13.458;2023-03-01T01:15:06;31.63;;;16.27;;
41887;SDS011;63122;52.424;13.458;2023-03-01T01:17:05;33.70;;;15.07;;
41887;SDS011;63122;52.424;13.458;2023-03-01T01:19:00;39.50;;;16.63;;
41887;SDS011;63122;52.424;13.458;2023-03-01T01:21:02;36.40;;;16.43;;
41887;SDS011;63122;52.424;13.458;2023-03-01T01:22:59;30.90;;;16.20;;
41887;SDS011;63122;52.424;13.458;2023-03-01T01:24:56;29.37;;;15.30;;
41887;SDS011;63122;52.424;13.458;2023-03-01T01:26:52;25.93;;;12.57;;
41887;SDS011;63122;52.424;13.458;2023-03-01T01:28:47;32.70;;;14.23;;
41887;SDS011;63122;52.424;13.458;2023-03-01T01:30:44;31.07;;;15.83;;
41887;SDS011;63122;52.424;13.458;2023-03-01T01:32:39;31.90;;;14.90;;
41887;SDS011;63122;52.424;13.458;2023-03-01T01:34:35;29.40;;;14.33;;
41887;SDS011;63122;52.424;13.458;2023-03-01T01:36:33;28.97;;;14.93;;
41887;SDS011;63122;52.424;13.458;2023-03-01T01:38:29;34.60;;;18.07;;
41887;SDS011;63122;52.424;13.458;2023-03-01T01:40:24;28.77;;;14.53;;
41887;SDS011;63122;52.424;13.458;2023-03-01T01:42:19;42.07;;;18.27;;
41887;SDS011;63122;52.424;13.458;2023-03-01T01:44:16;37.93;;;17.97;;
41887;SDS011;63122;52.424;13.458;2023-03-01T01:46:15;36.37;;;18.67;;
41887;SDS011;63122;52.424;13.458;2023-03-01T01:48:22;38.10;;;18.60;;
41887;SDS011;63122;52.424;13.458;2023-03-01T01:50:32;25.40;;;14.33;;
41887;SDS011;63122;52.424;13.458;2023-03-01T01:52:35;30.07;;;14.73;;
41887;SDS011;63122;52.424;13.458;2023-03-01T01:54:35;29.83;;;12.43;;
41887;SDS011;63122;52.424;13.458;2023-03-01T01:56:35;30.47;;;14.50;;
41887;SDS011;63122;52.424;13.458;2023-03-01T01:58:33;28.00;;;13.67;;
41887;SDS011;63122;52.424;13.458;2023-03-01T02:00:32;26.03;;;14.13;;
41887;SDS011;63122;52.424;13.458;2023-03-01T02:02:28;26.93;;;14.57;;
41887;SDS011;63122;52.424;13.458;2023-03-01T02:04:23;29.80;;;15.30;;
41887;SDS011;63122;52.424;13.458;2023-03-01T02:06:21;31.23;;;15.37;;
41887;SDS011;63122;52.424;13.458;2023-03-01T02:08:25;29.53;;;15.53;;
41887;SDS011;63122;52.424;13.458;2023-03-01T02:10:22;25.73;;;15.10;;
41887;SDS011;63122;52.424;13.458;2023-03-01T02:12:20;30.17;;;16.63;;
41887;SDS011;63122;52.424;13.458;2023-03-01T02:14:17;26.50;;;14.93;;
41887;SDS011;63122;52.424;13.458;2023-03-01T02:16:13;30.93;;;14.90;;
41887;SDS011;63122;52.424;13.458;2023-03-01T02:18:11;30.00;;;15.03;;
41887;SDS011;63122;52.424;13.458;2023-03-01T02:20:13;30.87;;;15.50;;
41887;SDS011;63122;52.424;13.458;2023-03-01T02:22:18;32.43;;;15.80;;
41887;SDS011;63122;52.424;13.458;2023-03-01T02:24:21;28.63;;;16.07;;
41887;SDS011;63122;52.424;13.458;2023-03-01T02:26:31;28.57;;;15.40;;
41887;SDS011;63122;52.424;13.458;2023-03-01T02:28:34;29.53;;;15.20;;
41887;SDS011;63122;52.424;13.458;2023-03-01T02:30:31;32.03;;;15.67;;
41887;SDS011;63122;52.424;13.458;2023-03-01T02:32:29;36.80;;;15.67;;
41887;SDS011;63122;52.424;13.458;2023-03-01T02:34:24;35.50;;;15.80;;
41887;SDS011;63122;52.424;13.458;2023-03-01T02:36:21;28.47;;;14.90;;
41887;SDS011;63122;52.424;13.458;2023-03-01T02:38:17;27.30;;;14.23;;
41887;SDS011;63122;52.424;13.458;2023-03-01T02:40:14;28.17;;;15.33;;
41887;SDS011;63122;52.424;13.458;2023-03-01T02:42:14;30.67;;;15.17;;
41887;SDS011;63122;52.424;13.458;2023-03-01T02:44:20;28.63;;;15.17;;
41887;SDS011;63122;52.424;13.458;2023-03-01T02:46:16;29.67;;;15.00;;
41887;SDS011;63122;52.424;13.458;2023-03-01T02:48:13;30.17;;;15.73;;
41887;SDS011;63122;52.424;13.458;2023-03-01T02:50:12;31.70;;;15.87;;
41887;SDS011;63122;52.424;13.458;2023-03-01T02:52:23;38.33;;;16.70;;
41887;SDS011;63122;52.424;13.458;2023-03-01T02:54:28;31.03;;;15.70;;
41887;SDS011;63122;52.424;13.458;2023-03-01T02:56:28;29.40;;;15.10;;
41887;SDS011;63122;52.424;13.458;2023-03-01T02:58:24;32.53;;;15.33;;
41887;SDS011;63122;52.424;13.458;2023-03-01T03:00:22;35.60;;;15.77;;
41887;SDS011;63122;52.424;13.458;2023-03-01T03:02:21;35.17;;;16.07;;
41887;SDS011;63122;52.424;13.458;2023-03-01T03:04:28;34.20;;;15.23;;
41887;SDS011;63122;52.424;13.458;2023-03-01T03:06:23;27.67;;;15.20;;
41887;SDS011;63122;52.424;13.458;2023-03-01T03:08:18;30.23;;;15.40;;
41887;SDS011;63122;52.424;13.458;2023-03-01T03:10:17;32.17;;;15.47;;
41887;SDS011;63122;52.424;13.458;2023-03-01T03:12:14;33.80;;;16.40;;
41887;SDS011;63122;52.424;13.458;2023-03-01T03:14:10;31.13;;;16.13;;
41887;SDS011;63122;52.424;13.458;2023-03-01T03:16:12;34.37;;;15.43;;
41887;SDS011;63122;52.424;13.458;2023-03-01T03:18:08;30.70;;;15.83;;
41887;SDS011;63122;52.424;13.458;2023-03-01T03:20:06;31.40;;;15.67;;
41887;SDS011;63122;52.424;13.458;2023-03-01T03:22:11;32.07;;;16.07;;
41887;SDS011;63122;52.424;13.458;2023-03-01T03:24:06;29.87;;;15.97;;
41887;SDS011;63122;52.424;13.458;2023-03-01T03:26:01;28.43;;;16.13;;
41887;SDS011;63122;52.424;13.458;2023-03-01T03:27:58;28.53;;;15.87;;
41887;SDS011;63122;52.424;13.458;2023-03-01T03:29:53;31.97;;;15.60;;
41887;SDS011;63122;52.424;13.458;2023-03-01T03:31:51;33.27;;;17.17;;
41887;SDS011;63122;52.424;13.458;2023-03-01T03:33:46;34.53;;;16.83;;
41887;SDS011;63122;52.424;13.458;2023-03-01T03:35:43;31.73;;;16.80;;
41887;SDS011;63122;52.424;13.458;2023-03-01T03:37:40;31.47;;;16.03;;
41887;SDS011;63122;52.424;13.458;2023-03-01T03:39:48;35.83;;;17.07;;
41887;SDS011;63122;52.424;13.458;2023-03-01T03:41:46;37.67;;;16.37;;
41887;SDS011;63122;52.424;13.458;2023-03-01T03:43:42;37.40;;;16.40;;
41887;SDS011;63122;52.424;13.458;2023-03-01T03:45:38;36.23;;;17.07;;
41887;SDS011;63122;52.424;13.458;2023-03-01T03:47:35;37.27;;;16.77;;
41887;SDS011;63122;52.424;13.458;2023-03-01T03:49:33;34.13;;;16.17;;
41887;SDS011;63122;52.424;13.458;2023-03-01T03:51:29;33.13;;;17.73;;
41887;SDS011;63122;52.424;13.458;2023-03-01T03:53:24;36.13;;;17.07;;
41887;SDS011;63122;52.424;13.458;2023-03-01T03:55:21;38.33;;;17.67;;
41887;SDS011;63122;52.424;13.458;2023-03-01T03:57:21;34.07;;;16.97;;
41887;SDS011;63122;52.424;13.458;2023-03-01T03:59:16;31.53;;;16.63;;
41887;SDS011;63122;52.424;13.458;2023-03-01T04:01:12;34.27;;;17.07;;
41887;SDS011;63122;52.424;13.458;2023-03-01T04:03:11;36.33;;;17.23;;
41887;SDS011;63122;52.424;13.458;2023-03-01T04:05:08;34.60;;;17.67;;
41887;SDS011;63122;52.424;13.458;2023-03-01T04:07:08;32.97;;;16.57;;
41887;SDS011;63122;52.424;13.458;2023-03-01T04:09:05;34.83;;;17.03;;
41887;SDS011;63122;52.424;13.458;2023-03-01T04:11:01;35.17;;;16.43;;
41887;SDS011;63122;52.424;13.458;2023-03-01T04:13:20;34.83;;;16.73;;
41887;SDS011;63122;52.424;13.458;2023-03-01T04:15:17;36.83;;;15.83;;
41887;SDS011;63122;52.424;13.458;2023-03-01T04:17:12;33.57;;;16.17;;
41887;SDS011;63122;52.424;13.458;2023-03-01T04:19:10;33.23;;;15.90;;
41887;SDS011;63122;52.424;13.458;2023-03-01T04:21:07;35.03;;;16.90;;
41887;SDS011;63122;52.424;13.458;2023-03-01T04:23:04;34.37;;;17.47;;
41887;SDS011;63122;52.424;13.458;2023-03-01T04:25:07;34.03;;;16.67;;
41887;SDS011;63122;52.424;13.458;2023-03-01T04:27:06;33.90;;;17.33;;
41887;SDS011;63122;52.424;13.458;2023-03-01T04:29:01;31.47;;;16.40;;
41887;SDS011;63122;52.424;13.458;2023-03-01T04:30:57;32.37;;;16.53;;
41887;SDS011;63122;52.424;13.458;2023-03-01T04:32:52;38.37;;;17.10;;
41887;SDS011;63122;52.424;13.458;2023-03-01T04:34:50;28.63;;;15.87;;
41887;SDS011;63122;52.424;13.458;2023-03-01T04:36:46;31.17;;;16.30;;
41887;SDS011;63122;52.424;13.458;2023-03-01T04:38:41;32.13;;;16.20;;
41887;SDS011;63122;52.424;13.458;2023-03-01T04:40:39;32.43;;;17.90;;
41887;SDS011;63122;52.424;13.458;2023-03-01T04:42:35;33.87;;;17.83;;
41887;SDS011;63122;52.424;13.458;2023-03-01T04:44:30;41.50;;;18.87;;
41887;SDS011;63122;52.424;13.458;2023-03-01T04:46:25;40.93;;;20.20;;
41887;SDS011;63122;52.424;13.458;2023-03-01T04:48:21;32.90;;;18.90;;
41887;SDS011;63122;52.424;13.458;2023-03-01T04:50:18;36.57;;;18.53;;
41887;SDS011;63122;52.424;13.458;2023-03-01T04:52:15;40.00;;;20.10;;
41887;SDS011;63122;52.424;13.458;2023-03-01T04:54:10;32.17;;;16.77;;
41887;SDS011;63122;52.424;13.458;2023-03-01T04:56:06;24.33;;;13.30;;
41887;SDS011;63122;52.424;13.458;2023-03-01T04:58:01;29.80;;;14.70;;
41887;SDS011;63122;52.424;13.458;2023-03-01T04:59:56;35.17;;;16.27;;
41887;SDS011;63122;52.424;13.458;2023-03-01T05:01:52;32.90;;;16.57;;
41887;SDS011;63122;52.424;13.458;2023-03-01T05:03:49;28.53;;;15.67;;
41887;SDS011;63122;52.424;13.458;2023-03-01T05:05:49;27.50;;;14.83;;
41887;SDS011;63122;52.424;13.458;2023-03-01T05:07:46;29.67;;;15.33;;
41887;SDS011;63122;52.424;13.458;2023-03-01T05:09:39;25.93;;;13.37;;
41887;SDS011;63122;52.424;13.458;2023-03-01T05:11:34;26.00;;;14.03;;
41887;SDS011;63122;52.424;13.458;2023-03-01T05:13:30;31.77;;;15.80;;
41887;SDS011;63122;52.424;13.458;2023-03-01T05:15:26;33.87;;;17.63;;
41887;SDS011;63122;52.424;13.458;2023-03-01T05:17:21;33.90;;;16.57;;
41887;SDS011;63122;52.424;13.458;2023-03-01T05:19:17;33.97;;;16.90;;
41887;SDS011;63122;52.424;13.458;2023-03-01T05:21:17;30.33;;;17.27;;
41887;SDS011;63122;52.424;13.458;2023-03-01T05:23:12;29.80;;;16.73;;
41887;SDS011;63122;52.424;13.458;2023-03-01T05:25:07;34.50;;;17.50;;
41887;SDS011;63122;52.424;13.458;2023-03-01T05:27:01;31.77;;;17.33;;
41887;SDS011;63122;52.424;13.458;2023-03-01T05:28:58;33.13;;;17.13;;
41887;SDS011;63122;52.424;13.458;2023-03-01T05:30:53;33.97;;;17.73;;
41887;SDS011;63122;52.424;13.458;2023-03-01T05:32:49;35.07;;;18.60;;
41887;SDS011;63122;52.424;13.458;2023-03-01T05:34:47;34.07;;;18.00;;
41887;SDS011;63122;52.424;13.458;2023-03-01T05:36:46;37.83;;;18.83;;
41887;SDS011;63122;52.424;13.458;2023-03-01T05:38:44;35.47;;;17.80;;
41887;SDS011;63122;52.424;13.458;2023-03-01T05:40:40;43.13;;;22.10;;
41887;SDS011;63122;52.424;13.458;2023-03-01T05:42:35;33.70;;;17.07;;
41887;SDS011;63122;52.424;13.458;2023-03-01T05:44:31;29.73;;;16.30;;
41887;SDS011;63122;52.424;13.458;2023-03-01T05:46:26;33.23;;;16.43;;
41887;SDS011;63122;52.424;13.458;2023-03-01T05:48:22;36.27;;;17.27;;
41887;SDS011;63122;52.424;13.458;2023-03-01T05:50:18;33.30;;;16.83;;
41887;SDS011;63122;52.424;13.458;2023-03-01T05:52:17;31.20;;;16.27;;
41887;SDS011;63122;52.424;13.458;2023-03-01T05:54:12;34.83;;;16.13;;
41887;SDS011;63122;52.424;13.458;2023-03-01T05:56:08;34.40;;;17.17;;
41887;SDS011;63122;52.424;13.458;2023-03-01T05:58:04;34.10;;;17.40;;
41887;SDS011;63122;52.424;13.458;2023-03-01T06:00:00;33.00;;;16.97;;
41887;SDS011;63122;52.424;13.458;2023-03-01T06:01:55;44.83;;;23.53;;
41887;SDS011;63122;52.424;13.458;2023-03-01T06:03:51;47.00;;;22.60;;
41887;SDS011;63122;52.424;13.458;2023-03-01T06:05:46;37.30;;;17.10;;
41887;SDS011;63122;52.424;13.458;2023-03-01T06:07:44;32.70;;;17.27;;
41887;SDS011;63122;52.424;13.458;2023-03-01T06:09:39;34.63;;;17.67;;
41887;SDS011;63122;52.424;13.458;2023-03-01T06:11:35;36.87;;;17.37;;
41887;SDS011;63122;52.424;13.458;2023-03-01T06:13:31;29.73;;;16.17;;
41887;SDS011;63122;52.424;13.458;2023-03-01T06:15:26;37.10;;;17.17;;
41887;SDS011;63122;52.424;13.458;2023-03-01T06:17:22;32.27;;;16.73;;
41887;SDS011;63122;52.424;13.458;2023-03-01T06:19:17;36.33;;;17.37;;
41887;SDS011;63122;52.424;13.458;2023-03-01T06:21:12;36.97;;;18.00;;
41887;SDS011;63122;52.424;13.458;2023-03-01T06:23:10;36.93;;;17.70;;
41887;SDS011;63122;52.424;13.458;2023-03-01T06:25:06;33.30;;;16.70;;
41887;SDS011;63122;52.424;13.458;2023-03-01T06:27:00;35.47;;;17.17;;
41887;SDS011;63122;52.424;13.458;2023-03-01T06:28:56;33.80;;;16.80;;
41887;SDS011;63122;52.424;13.458;2023-03-01T06:30:51;33.00;;;17.23;;
41887;SDS011;63122;52.424;13.458;2023-03-01T06:32:47;36.33;;;18.23;;
41887;SDS011;63122;52.424;13.458;2023-03-01T06:34:42;35.17;;;17.83;;
41887;SDS011;63122;52.424;13.458;2023-03-01T06:36:37;35.90;;;17.57;;
41887;SDS011;63122;52.424;13.458;2023-03-01T06:38:35;38.23;;;18.60;;
41887;SDS011;63122;52.424;13.458;2023-03-01T06:40:32;34.17;;;17.13;;
41887;SDS011;63122;52.424;13.458;2023-03-01T06:42:28;39.57;;;18.27;;
41887;SDS011;63122;52.424;13.458;2023-03-01T06:44:23;34.07;;;17.87;;
41887;SDS011;63122;52.424;13.458;2023-03-01T06:46:21;38.27;;;17.93;;
41887;SDS011;63122;52.424;13.458;2023-03-01T06:48:16;29.47;;;17.00;;
41887;SDS011;63122;52.424;13.458;2023-03-01T06:50:12;39.77;;;18.57;;
41887;SDS011;63122;52.424;13.458;2023-03-01T06:52:08;36.57;;;18.63;;
41887;SDS011;63122;52.424;13.458;2023-03-01T06:54:06;39.10;;;18.13;;
41887;SDS011;63122;52.424;13.458;2023-03-01T06:56:02;41.37;;;19.33;;
41887;SDS011;63122;52.424;13.458;2023-03-01T06:58:00;36.77;;;18.70;;
41887;SDS011;63122;52.424;13.458;2023-03-01T06:59:56;37.07;;;19.07;;
41887;SDS011;63122;52.424;13.458;2023-03-01T07:01:51;38.27;;;19.63;;
41887;SDS011;63122;52.424;13.458;2023-03-01T07:03:46;33.20;;;17.63;;
41887;SDS011;63122;52.424;13.458;2023-03-01T07:05:42;35.83;;;19.07;;
41887;SDS011;63122;52.424;13.458;2023-03-01T07:07:37;39.30;;;18.47;;
41887;SDS011;63122;52.424;13.458;2023-03-01T07:09:35;36.20;;;17.77;;
41887;SDS011;63122;52.424;13.458;2023-03-01T07:11:30;41.30;;;19.47;;
41887;SDS011;63122;52.424;13.458;2023-03-01T07:13:25;55.07;;;27.27;;
41887;SDS011;63122;52.424;13.458;2023-03-01T07:15:20;44.37;;;21.87;;
41887;SDS011;63122;52.424;13.458;2023-03-01T07:17:16;33.57;;;17.87;;
41887;SDS011;63122;52.424;13.458;2023-03-01T07:19:11;36.13;;;17.43;;
41887;SDS011;63122;52.424;13.458;2023-03-01T07:21:07;40.20;;;18.80;;
41887;SDS011;63122;52.424;13.458;2023-03-01T07:23:04;34.13;;;16.53;;
41887;SDS011;63122;52.424;13.458;2023-03-01T07:25:03;35.37;;;18.90;;
41887;SDS011;63122;52.424;13.458;2023-03-01T07:26:59;35.93;;;18.17;;
41887;SDS011;63122;52.424;13.458;2023-03-01T07:28:54;36.97;;;17.80;;
41887;SDS011;63122;52.424;13.458;2023-03-01T07:30:49;35.07;;;17.97;;
41887;SDS011;63122;52.424;13.458;2023-03-01T07:32:44;35.20;;;17.83;;
41887;SDS011;63122;52.424;13.458;2023-03-01T07:34:40;39.30;;;17.70;;
41887;SDS011;63122;52.424;13.458;2023-03-01T07:36:35;33.33;;;18.07;;
41887;SDS011;63122;52.424;13.458;2023-03-01T07:38:31;39.40;;;19.00;;
41887;SDS011;63122;52.424;13.458;2023-03-01T07:40:29;38.77;;;20.83;;
41887;SDS011;63122;52.424;13.458;2023-03-01T07:42:24;38.13;;;20.53;;
41887;SDS011;63122;52.424;13.458;2023-03-01T07:44:20;35.10;;;17.97;;
41887;SDS011;63122;52.424;13.458;2023-03-01T07:46:15;34.60;;;17.97;;
41887;SDS011;63122;52.424;13.458;2023-03-01T07:48:11;40.97;;;21.07;;
41887;SDS011;63122;52.424;13.458;2023-03-01T07:50:07;40.63;;;19.73;;
41887;SDS011;63122;52.424;13.458;2023-03-01T07:52:05;35.27;;;17.40;;
41887;SDS011;63122;52.424;13.458;2023-03-01T07:54:01;36.57;;;18.57;;
41887;SDS011;63122;52.424;13.458;2023-03-01T07:56:06;36.43;;;16.50;;
41887;SDS011;63122;52.424;13.458;2023-03-01T07:58:02;28.80;;;15.77;;
41887;SDS011;63122;52.424;13.458;2023-03-01T07:59:58;39.07;;;16.03;;
41887;SDS011;63122;52.424;13.458;2023-03-01T08:01:56;32.37;;;15.83;;
41887;SDS011;63122;52.424;13.458;2023-03-01T08:04:09;33.73;;;15.43;;
41887;SDS011;63122;52.424;13.458;2023-03-01T08:06:06;37.07;;;16.83;;
41887;SDS011;63122;52.424;13.458;2023-03-01T08:10:31;29.53;;;15.97;;
41887;SDS011;63122;52.424;13.458;2023-03-01T08:12:30;36.67;;;17.77;;
41887;SDS011;63122;52.424;13.458;2023-03-01T08:14:26;32.67;;;16.10;;
41887;SDS011;63122;52.424;13.458;2023-03-01T08:16:23;34.87;;;16.47;;
41887;SDS011;63122;52.424;13.458;2023-03-01T08:18:21;27.00;;;15.00;;
41887;SDS011;63122;52.424;13.458;2023-03-01T08:20:18;30.60;;;14.30;;
41887;SDS011;63122;52.424;13.458;2023-03-01T08:22:13;26.60;;;14.20;;
41887;SDS011;63122;52.424;13.458;2023-03-01T08:24:08;26.80;;;14.03;;
41887;SDS011;63122;52.424;13.458;2023-03-01T08:26:05;28.50;;;13.63;;
41887;SDS011;63122;52.424;13.458;2023-03-01T08:28:10;26.97;;;13.47;;
41887;SDS011;63122;52.424;13.458;2023-03-01T08:30:08;24.53;;;13.50;;
41887;SDS011;63122;52.424;13.458;2023-03-01T08:32:07;42.00;;;13.50;;
41887;SDS011;63122;52.424;13.458;2023-03-01T08:34:04;29.33;;;13.20;;
41887;SDS011;63122;52.424;13.458;2023-03-01T08:36:04;25.07;;;12.67;;
41887;SDS011;63122;52.424;13.458;2023-03-01T08:38:00;25.03;;;12.27;;
41887;SDS011;63122;52.424;13.458;2023-03-01T08:39:55;25.03;;;12.53;;
41887;SDS011;63122;52.424;13.458;2023-03-01T08:41:50;23.87;;;11.93;;
41887;SDS011;63122;52.424;13.458;2023-03-01T08:43:48;31.23;;;16.70;;
41887;SDS011;63122;52.424;13.458;2023-03-01T08:45:44;30.53;;;16.73;;
41887;SDS011;63122;52.424;13.458;2023-03-01T08:47:39;27.10;;;13.17;;
41887;SDS011;63122;52.424;13.458;2023-03-01T08:49:34;26.60;;;13.80;;
41887;SDS011;63122;52.424;13.458;2023-03-01T08:51:30;25.80;;;13.27;;
41887;SDS011;63122;52.424;13.458;2023-03-01T08:53:28;26.13;;;13.17;;
41887;SDS011;63122;52.424;13.458;2023-03-01T08:55:23;20.77;;;11.83;;
41887;SDS011;63122;52.424;13.458;2023-03-01T08:57:18;22.57;;;12.27;;
41887;SDS011;63122;52.424;13.458;2023-03-01T08:59:16;27.10;;;12.77;;
41887;SDS011;63122;52.424;13.458;2023-03-01T09:01:13;27.50;;;13.13;;
41887;SDS011;63122;52.424;13.458;2023-03-01T09:03:10;24.70;;;12.73;;
41887;SDS011;63122;52.424;13.458;2023-03-01T09:05:06;22.63;;;11.97;;
41887;SDS011;63122;52.424;13.458;2023-03-01T09:07:01;22.77;;;12.30;;
41887;SDS011;63122;52.424;13.458;2023-03-01T09:09:00;25.00;;;11.27;;
41887;SDS011;63122;52.424;13.458;2023-03-01T09:10:56;22.23;;;11.63;;
41887;SDS011;63122;52.424;13.458;2023-03-01T09:12:51;19.77;;;11.30;;
41887;SDS011;63122;52.424;13.458;2023-03-01T09:14:49;21.40;;;10.57;;
41887;SDS011;63122;52.424;13.458;2023-03-01T09:16:45;20.93;;;10.87;;
41887;SDS011;63122;52.424;13.458;2023-03-01T09:18:40;19.07;;;10.90;;
41887;SDS011;63122;52.424;13.458;2023-03-01T09:20:35;23.63;;;11.40;;
41887;SDS011;63122;52.424;13.458;2023-03-01T09:22:30;20.70;;;10.97;;
41887;SDS011;63122;52.424;13.458;2023-03-01T09:24:27;24.17;;;10.40;;
41887;SDS011;63122;52.424;13.458;2023-03-01T09:26:22;24.37;;;11.03;;
41887;SDS011;63122;52.424;13.458;2023-03-01T09:28:18;18.37;;;10.17;;
41887;SDS011;63122;52.424;13.458;2023-03-01T09:30:23;20.77;;;9.80;;
41887;SDS011;63122;52.424;13.458;2023-03-01T09:32:19;21.97;;;9.63;;
41887;SDS011;63122;52.424;13.458;2023-03-01T09:34:14;16.30;;;9.10;;
41887;SDS011;63122;52.424;13.458;2023-03-01T09:36:16;20.93;;;9.53;;
41887;SDS011;63122;52.424;13.458;2023-03-01T09:38:12;21.47;;;9.27;;
41887;SDS011;63122;52.424;13.458;2023-03-01T09:40:10;15.20;;;8.87;;
41887;SDS011;63122;52.424;13.458;2023-03-01T09:42:10;16.93;;;8.47;;
41887;SDS011;63122;52.424;13.458;2023-03-01T09:44:10;14.43;;;8.80;;
41887;SDS011;63122;52.424;13.458;2023-03-01T09:46:11;15.53;;;9.30;;
41887;SDS011;63122;52.424;13.458;2023-03-01T09:48:11;19.03;;;10.30;;
41887;SDS011;63122;52.424;13.458;2023-03-01T09:50:14;16.37;;;9.37;;
41887;SDS011;63122;52.424;13.458;2023-03-01T09:52:13;20.10;;;9.03;;
41887;SDS011;63122;52.424;13.458;2023-03-01T09:54:18;17.27;;;8.93;;
41887;SDS011;63122;52.424;13.458;2023-03-01T09:56:16;19.10;;;9.30;;
41887;SDS011;63122;52.424;13.458;2023-03-01T09:58:23;17.80;;;8.90;;
41887;SDS011;63122;52.424;13.458;2023-03-01T10:00:37;15.87;;;8.13;;
41887;SDS011;63122;52.424;13.458;2023-03-01T10:02:41;13.43;;;7.40;;
41887;SDS011;63122;52.424;13.458;2023-03-01T10:04:41;13.53;;;8.07;;
41887;SDS011;63122;52.424;13.458;2023-03-01T10:06:43;19.10;;;8.30;;
41887;SDS011;63122;52.424;13.458;2023-03-01T10:08:50;16.23;;;7.60;;
41887;SDS011;63122;52.424;13.458;2023-03-01T10:10:49;15.93;;;7.20;;
41887;SDS011;63122;52.424;13.458;2023-03-01T10:12:46;16.67;;;7.50;;
41887;SDS011;63122;52.424;13.458;2023-03-01T10:14:43;13.27;;;6.93;;
41887;SDS011;63122;52.424;13.458;2023-03-01T10:16:50;12.17;;;6.33;;
41887;SDS011;63122;52.424;13.458;2023-03-01T10:18:54;12.23;;;7.23;;
41887;SDS011;63122;52.424;13.458;2023-03-01T10:20:55;12.37;;;7.20;;
41887;SDS011;63122;52.424;13.458;2023-03-01T10:22:54;17.37;;;8.00;;
41887;SDS011;63122;52.424;13.458;2023-03-01T10:24:51;13.73;;;6.73;;
41887;SDS011;63122;52.424;13.458;2023-03-01T10:26:52;12.20;;;7.23;;
41887;SDS011;63122;52.424;13.458;2023-03-01T10:28:54;11.00;;;6.37;;
41887;SDS011;63122;52.424;13.458;2023-03-01T10:31:00;12.47;;;6.37;;
41887;SDS011;63122;52.424;13.458;2023-03-01T10:32:57;11.00;;;6.23;;
41887;SDS011;63122;52.424;13.458;2023-03-01T10:34:57;14.40;;;5.70;;
41887;SDS011;63122;52.424;13.458;2023-03-01T10:36:56;15.80;;;6.50;;
41887;SDS011;63122;52.424;13.458;2023-03-01T10:38:53;10.77;;;5.90;;
41887;SDS011;63122;52.424;13.458;2023-03-01T10:40:55;13.63;;;5.83;;
41887;SDS011;63122;52.424;13.458;2023-03-01T10:42:52;10.40;;;6.03;;
41887;SDS011;63122;52.424;13.458;2023-03-01T10:44:48;14.97;;;7.10;;
41887;SDS011;63122;52.424;13.458;2023-03-01T10:46:47;13.43;;;6.63;;
41887;SDS011;63122;52.424;13.458;2023-03-01T10:49:10;12.43;;;7.10;;
41887;SDS011;63122;52.424;13.458;2023-03-01T10:51:17;13.90;;;7.20;;
41887;SDS011;63122;52.424;13.458;2023-03-01T10:53:20;14.07;;;7.40;;
41887;SDS011;63122;52.424;13.458;2023-03-01T10:55:23;12.37;;;7.07;;
41887;SDS011;63122;52.424;13.458;2023-03-01T10:57:35;12.57;;;7.17;;
41887;SDS011;63122;52.424;13.458;2023-03-01T10:59:34;17.77;;;6.67;;
41887;SDS011;63122;52.424;13.458;2023-03-01T11:01:32;13.60;;;6.80;;
41887;SDS011;63122;52.424;13.458;2023-03-01T11:03:29;12.53;;;6.73;;
41887;SDS011;63122;52.424;13.458;2023-03-01T11:05:26;15.53;;;7.13;;
41887;SDS011;63122;52.424;13.458;2023-03-01T11:07:25;14.27;;;6.67;;
41887;SDS011;63122;52.424;13.458;2023-03-01T11:09:21;13.20;;;6.83;;
41887;SDS011;63122;52.424;13.458;2023-03-01T11:11:23;12.57;;;6.30;;
41887;SDS011;63122;52.424;13.458;2023-03-01T11:13:24;12.50;;;6.43;;
41887;SDS011;63122;52.424;13.458;2023-03-01T11:15:24;18.53;;;5.43;;
41887;SDS011;63122;52.424;13.458;2023-03-01T11:17:21;8.20;;;5.37;;
41887;SDS011;63122;52.424;13.458;2023-03-01T11:19:21;8.03;;;5.13;;
41887;SDS011;63122;52.424;13.458;2023-03-01T11:21:16;15.50;;;6.50;;
41887;SDS011;63122;52.424;13.458;2023-03-01T11:23:14;11.60;;;5.90;;